Time;durP1;ratioP1;P1;durP2;ratioP2;P2;SDS_P1;SDS_P2;PMS_P1;PMS_P2;Temp;Humidity;BMP_temperature;BMP_pressure;BME280_temperature;BME280_humidity;BME280_pressure;Samples;Min_cycle;Max_cycle;Signal;HPM_P1;HPM_P2
2022/04/18 00:06:46;;;;;;;3.70;2.35;;;;;;;;;;20957234;28;21035;-84
2022/04/18 00:16:48;;;;;;;3.67;2.22;;;;;;;;;;20962587;28;20055;-83
2022/04/18 00:26:49;;;;;;;3.30;2.10;;;;;;;;;;20958448;28;20080;-83
2022/04/18 00:36:51;;;;;;;3.17;2.15;;;;;;;;;;20958333;28;20569;-83
2022/04/18 00:46:53;;;;;;;2.97;2.30;;;;;;;;;;20953494;28;20056;-82
2022/04/18 00:56:56;;;;;;;2.97;2.28;;;;;;;;;;20937523;28;20049;-82
2022/04/18 01:06:59;;;;;;;4.00;2.40;;;;;;;;;;20958081;28;20110;-82
2022/04/18 01:17:00;;;;;;;3.30;2.30;;;;;;;;;;20969052;28;20048;-82
2022/04/18 01:37:23;;;;;;;3.38;2.13;;;;;;;;;;20954517;28;20044;-81
2022/04/18 01:47:27;;;;;;;2.53;2.03;;;;;;;;;;20951308;28;20051;-82
2022/04/18 01:57:29;;;;;;;3.83;2.17;;;;;;;;;;20965040;28;20052;-82
2022/04/18 02:07:31;;;;;;;3.08;2.28;;;;;;;;;;20955924;28;20048;-82
2022/04/18 02:17:33;;;;;;;3.30;2.25;;;;;;;;;;20930913;28;20490;-82
2022/04/18 02:27:36;;;;;;;3.67;2.50;;;;;;;;;;20927577;28;20049;-82
2022/04/18 02:37:39;;;;;;;3.05;2.38;;;;;;;;;;20935678;28;20075;-81
2022/04/18 02:47:42;;;;;;;2.55;1.95;;;;;;;;;;20946820;28;20048;-82
2022/04/18 02:57:43;;;;;;;3.22;2.30;;;;;;;;;;20948302;28;20052;-80
2022/04/18 03:07:46;;;;;;;2.67;2.20;;;;;;;;;;20935817;28;20071;-84
2022/04/18 03:17:50;;;;;;;2.63;2.05;;;;;;;;;;20963412;28;20454;-85
2022/04/18 03:27:52;;;;;;;2.90;2.20;;;;;;;;;;20986051;28;20494;-85
2022/04/18 03:48:15;;;;;;;3.33;2.10;;;;;;;;;;20954537;28;20049;-85
2022/04/18 03:58:17;;;;;;;3.17;2.10;;;;;;;;;;20983888;28;20517;-85
2022/04/18 04:08:22;;;;;;;2.10;1.77;;;;;;;;;;21000940;28;20135;-84
2022/04/18 04:18:28;;;;;;;3.35;2.42;;;;;;;;;;20982699;28;20063;-85
2022/04/18 04:28:36;;;;;;;3.17;2.58;;;;;;;;;;20949341;28;20139;-84
2022/04/18 04:38:46;;;;;;;2.78;2.20;;;;;;;;;;20963654;28;20053;-85
2022/04/18 04:48:53;;;;;;;2.83;2.20;;;;;;;;;;20980289;28;20052;-84
2022/04/18 04:58:55;;;;;;;3.40;2.40;;;;;;;;;;20962505;28;20048;-84
2022/04/18 05:09:00;;;;;;;2.50;2.30;;;;;;;;;;20978803;28;20451;-84
2022/04/18 05:19:05;;;;;;;3.63;2.17;;;;;;;;;;20961785;28;20110;-84
2022/04/18 05:29:07;;;;;;;2.30;2.10;;;;;;;;;;20977034;28;20059;-84
2022/04/18 05:39:10;;;;;;;3.03;2.20;;;;;;;;;;20994290;28;20098;-85
2022/04/18 05:49:17;;;;;;;3.90;2.20;;;;;;;;;;20944070;28;20048;-85
2022/04/18 05:59:20;;;;;;;2.78;2.20;;;;;;;;;;20975793;28;20792;-85
2022/04/18 06:09:34;;;;;;;2.50;2.25;;;;;;;;;;20958675;28;20502;-85
2022/04/18 06:19:37;;;;;;;3.58;2.75;;;;;;;;;;20956543;28;20044;-85
2022/04/18 06:29:39;;;;;;;3.15;2.17;;;;;;;;;;20972113;28;20486;-85
2022/04/18 06:39:43;;;;;;;4.05;2.40;;;;;;;;;;20939712;28;20391;-85
2022/04/18 06:49:52;;;;;;;2.95;2.20;;;;;;;;;;20954797;28;20049;-85
2022/04/18 07:00:23;;;;;;;3.17;2.22;;;;;;;;;;20971630;28;20106;-85
2022/04/18 07:10:24;;;;;;;3.15;2.10;;;;;;;;;;20953901;28;20132;-84
2022/04/18 07:20:28;;;;;;;2.15;1.95;;;;;;;;;;20969844;28;20091;-85
2022/04/18 07:30:30;;;;;;;2.97;2.20;;;;;;;;;;20804733;28;20095;-85
2022/04/18 07:40:32;;;;;;;2.88;1.90;;;;;;;;;;20820546;28;20885;-85
2022/04/18 08:01:04;;;;;;;2.53;1.95;;;;;;;;;;20782785;28;20060;-84
2022/04/18 08:11:11;;;;;;;3.20;2.28;;;;;;;;;;20828879;28;20072;-85
2022/04/18 08:21:17;;;;;;;3.20;1.92;;;;;;;;;;20818563;28;20434;-85
2022/04/18 08:31:19;;;;;;;4.57;2.63;;;;;;;;;;20913802;28;20053;-84
2022/04/18 08:41:38;;;;;;;2.45;2.00;;;;;;;;;;20914784;28;20048;-85
2022/04/18 09:02:09;;;;;;;1.98;1.70;;;;;;;;;;20912499;28;20080;-84
2022/04/18 09:12:28;;;;;;;3.35;2.25;;;;;;;;;;20897811;28;20486;-84
2022/04/18 09:22:49;;;;;;;2.67;1.88;;;;;;;;;;20908290;28;20571;-84
2022/04/18 09:32:56;;;;;;;2.58;2.00;;;;;;;;;;20960503;28;20048;-84
2022/04/18 09:43:07;;;;;;;2.80;1.80;;;;;;;;;;20959283;28;20525;-84
2022/04/18 09:53:17;;;;;;;2.70;1.70;;;;;;;;;;20975014;28;20057;-84
2022/04/18 10:03:19;;;;;;;3.25;1.95;;;;;;;;;;20974568;28;20139;-86
2022/04/18 10:13:21;;;;;;;3.42;2.17;;;;;;;;;;20974019;28;20121;-84
2022/04/18 10:23:23;;;;;;;2.17;1.70;;;;;;;;;;20974122;28;20399;-84
2022/04/18 10:33:25;;;;;;;1.98;1.77;;;;;;;;;;20986607;28;20044;-84
2022/04/18 10:44:00;;;;;;;2.28;1.75;;;;;;;;;;20959950;28;20053;-81
2022/04/18 10:54:08;;;;;;;2.05;1.55;;;;;;;;;;20917296;28;20468;-83
2022/04/18 11:04:11;;;;;;;3.08;1.95;;;;;;;;;;20970567;28;20063;-83
2022/04/18 11:14:23;;;;;;;2.55;1.50;;;;;;;;;;20970133;28;20556;-83
2022/04/18 11:24:35;;;;;;;2.55;1.90;;;;;;;;;;20970252;28;20113;-83
2022/04/18 11:34:37;;;;;;;2.03;1.55;;;;;;;;;;20987211;28;20045;-82
2022/04/18 11:44:40;;;;;;;1.70;1.33;;;;;;;;;;20962523;28;20127;-83
2022/04/18 11:55:01;;;;;;;2.40;1.98;;;;;;;;;;21002307;28;20071;-82
2022/04/18 12:15:31;;;;;;;2.13;1.33;;;;;;;;;;20963066;28;20148;-83
2022/04/18 12:25:33;;;;;;;1.83;1.17;;;;;;;;;;20981691;28;20063;-83
2022/04/18 12:35:38;;;;;;;2.20;1.40;;;;;;;;;;20999411;28;20068;-83
2022/04/18 12:45:44;;;;;;;1.87;1.40;;;;;;;;;;20980392;28;20044;-83
2022/04/18 12:55:46;;;;;;;2.30;1.60;;;;;;;;;;20979094;28;20128;-83
2022/04/18 13:05:49;;;;;;;1.90;1.40;;;;;;;;;;20979145;28;20060;-83
2022/04/18 13:15:51;;;;;;;2.55;1.50;;;;;;;;;;20996116;28;20560;-83
2022/04/18 13:25:53;;;;;;;1.38;1.20;;;;;;;;;;20994946;28;20064;-83
2022/04/18 13:46:15;;;;;;;1.30;1.20;;;;;;;;;;20993460;28;20049;-83
2022/04/18 13:56:17;;;;;;;2.03;1.20;;;;;;;;;;20958389;28;20109;-83
2022/04/18 14:06:19;;;;;;;1.45;1.20;;;;;;;;;;20973096;28;20048;-83
2022/04/18 14:26:41;;;;;;;1.58;1.20;;;;;;;;;;20990778;28;20055;-82
2022/04/18 14:36:42;;;;;;;2.00;1.20;;;;;;;;;;20972347;28;20036;-83
2022/04/18 14:46:44;;;;;;;2.03;1.10;;;;;;;;;;20971704;28;20045;-82
2022/04/18 14:56:46;;;;;;;2.10;1.20;;;;;;;;;;20988994;28;20095;-82
2022/04/18 15:06:48;;;;;;;1.63;1.10;;;;;;;;;;20954181;28;20046;-83
2022/04/18 15:16:50;;;;;;;2.78;1.20;;;;;;;;;;20959114;28;20055;-83
2022/04/18 15:26:52;;;;;;;2.33;1.35;;;;;;;;;;20994991;28;20053;-83
2022/04/18 15:36:55;;;;;;;1.27;1.00;;;;;;;;;;20986031;28;20417;-83
2022/04/18 15:47:00;;;;;;;1.00;0.82;;;;;;;;;;21002206;28;20151;-83
2022/04/18 15:57:02;;;;;;;1.30;1.13;;;;;;;;;;21000953;28;20131;-83
2022/04/18 16:07:07;;;;;;;1.10;1.00;;;;;;;;;;21002162;28;20139;-83
2022/04/18 16:17:09;;;;;;;1.63;0.95;;;;;;;;;;20999407;28;20181;-86
2022/04/18 16:27:10;;;;;;;1.45;1.00;;;;;;;;;;20980962;28;20049;-86
2022/04/18 16:37:12;;;;;;;1.20;1.00;;;;;;;;;;20981517;28;20474;-85
2022/04/18 16:47:14;;;;;;;1.00;0.90;;;;;;;;;;20997365;28;20052;-86
2022/04/18 16:57:16;;;;;;;0.70;0.70;;;;;;;;;;20997536;28;20049;-86
2022/04/18 17:07:18;;;;;;;0.95;0.90;;;;;;;;;;20996831;28;20049;-86
2022/04/18 17:17:19;;;;;;;1.42;0.90;;;;;;;;;;20991886;28;20049;-85
2022/04/18 17:27:21;;;;;;;0.85;0.80;;;;;;;;;;20969397;28;20062;-86
2022/04/18 17:37:23;;;;;;;1.10;0.75;;;;;;;;;;20959943;28;20040;-86
2022/04/18 17:47:25;;;;;;;0.82;0.80;;;;;;;;;;20976426;28;20131;-86
2022/04/18 17:57:26;;;;;;;0.90;0.90;;;;;;;;;;20974734;28;20090;-86
2022/04/18 18:07:28;;;;;;;1.20;1.00;;;;;;;;;;20974230;28;20052;-86
2022/04/18 18:17:31;;;;;;;1.10;0.90;;;;;;;;;;20991419;28;20048;-86
2022/04/18 18:27:33;;;;;;;0.82;0.80;;;;;;;;;;20991173;28;20135;-85
2022/04/18 18:37:35;;;;;;;0.88;0.80;;;;;;;;;;20990137;28;20050;-86
2022/04/18 18:47:37;;;;;;;2.17;0.90;;;;;;;;;;20971672;28;20037;-86
2022/04/18 18:57:38;;;;;;;1.13;0.90;;;;;;;;;;20988964;28;20136;-83
2022/04/18 19:07:40;;;;;;;0.98;0.80;;;;;;;;;;20970499;28;20041;-82
2022/04/18 19:28:03;;;;;;;1.70;0.70;;;;;;;;;;20987933;28;20055;-83
2022/04/18 19:38:05;;;;;;;1.02;0.93;;;;;;;;;;20969480;28;20140;-83
2022/04/18 19:48:06;;;;;;;0.70;0.70;;;;;;;;;;20952876;28;20076;-83
2022/04/18 19:58:09;;;;;;;0.85;0.80;;;;;;;;;;20971536;28;20094;-84
2022/04/18 20:08:11;;;;;;;1.52;1.17;;;;;;;;;;20983575;28;20055;-83
2022/04/18 20:18:14;;;;;;;0.93;0.82;;;;;;;;;;20986004;28;20131;-85
2022/04/18 20:28:16;;;;;;;1.25;0.90;;;;;;;;;;21003135;28;20063;-85
2022/04/18 20:38:18;;;;;;;1.17;0.90;;;;;;;;;;20983712;28;20139;-84
2022/04/18 20:48:31;;;;;;;0.80;0.80;;;;;;;;;;20967010;28;20510;-85
2022/04/18 20:58:38;;;;;;;1.95;0.85;;;;;;;;;;20969249;28;20067;-84
2022/04/18 21:08:42;;;;;;;0.98;0.88;;;;;;;;;;20967502;28;20102;-85
2022/04/18 21:18:44;;;;;;;1.25;0.90;;;;;;;;;;21002191;28;20522;-84
2022/04/18 21:28:46;;;;;;;1.00;0.90;;;;;;;;;;21002731;28;20052;-84
2022/04/18 21:38:48;;;;;;;1.85;1.10;;;;;;;;;;21002010;28;20045;-84
2022/04/18 21:48:49;;;;;;;1.30;1.00;;;;;;;;;;20985090;28;20139;-85
2022/04/18 21:58:58;;;;;;;1.02;0.90;;;;;;;;;;20967643;28;20064;-84
2022/04/18 22:09:00;;;;;;;1.23;0.80;;;;;;;;;;20983177;28;20063;-84
2022/04/18 22:29:23;;;;;;;1.40;0.90;;;;;;;;;;20997412;28;20087;-84
2022/04/18 22:39:24;;;;;;;1.23;0.93;;;;;;;;;;20980546;28;20048;-84
2022/04/18 22:49:26;;;;;;;1.10;1.00;;;;;;;;;;20997022;28;20041;-85
2022/04/18 22:59:28;;;;;;;2.22;1.10;;;;;;;;;;20978795;28;20048;-84
2022/04/18 23:09:30;;;;;;;0.95;0.90;;;;;;;;;;20995894;28;20056;-85
2022/04/18 23:19:32;;;;;;;1.38;1.05;;;;;;;;;;20995788;28;20051;-85
2022/04/18 23:29:34;;;;;;;1.13;1.00;;;;;;;;;;20995081;28;20697;-85
2022/04/18 23:50:47;;;;;;;1.08;0.98;;;;;;;;;;21007511;28;20110;-84
